createdAt,value
2023-01-12T00:02:07.470Z,4.90
2023-01-12T00:04:36.029Z,4.83
2023-01-12T00:07:07.485Z,4.87
2023-01-12T00:09:35.371Z,4.83
2023-01-12T00:12:06.367Z,4.80
2023-01-12T00:14:34.530Z,4.81
2023-01-12T00:17:02.467Z,4.81
2023-01-12T00:19:30.454Z,4.77
2023-01-12T00:22:02.244Z,4.82
2023-01-12T00:24:31.555Z,4.84
2023-01-12T00:27:01.111Z,4.84
2023-01-12T00:29:30.437Z,4.85
2023-01-12T00:32:00.739Z,4.90
2023-01-12T00:34:29.875Z,4.92
2023-01-12T00:36:58.606Z,4.91
2023-01-12T00:39:26.447Z,4.95
2023-01-12T00:42:12.005Z,4.97
2023-01-12T00:44:59.233Z,5.02
2023-01-12T00:47:27.360Z,5.04
2023-01-12T00:49:55.225Z,5.05
2023-01-12T00:52:30.847Z,5.03
2023-01-12T00:55:00.224Z,5.06
2023-01-12T00:57:28.772Z,5.09
2023-01-12T01:00:00.013Z,5.14
2023-01-12T01:02:29.224Z,5.13
2023-01-12T01:04:57.557Z,5.15
2023-01-12T01:07:25.993Z,5.18
2023-01-12T01:09:54.513Z,5.19
2023-01-12T01:12:22.542Z,5.22
2023-01-12T01:14:50.633Z,5.22
2023-01-12T01:17:19.806Z,5.24
2023-01-12T01:19:48.959Z,5.24
2023-01-12T01:22:16.745Z,5.25
2023-01-12T01:24:44.637Z,5.24
2023-01-12T01:27:12.664Z,5.23
2023-01-12T01:29:40.712Z,5.26
2023-01-12T01:32:08.871Z,5.26
2023-01-12T01:34:38.149Z,5.26
2023-01-12T01:37:05.968Z,5.27
2023-01-12T01:39:33.820Z,5.28
2023-01-12T01:42:02.097Z,5.29
2023-01-12T01:44:53.622Z,5.28
2023-01-12T01:47:31.287Z,5.32
2023-01-12T01:50:03.535Z,5.30
2023-01-12T01:52:35.098Z,5.32
2023-01-12T01:55:06.597Z,5.34
2023-01-12T01:57:41.663Z,5.33
2023-01-12T02:00:13.018Z,5.36
2023-01-12T02:02:43.010Z,5.35
2023-01-12T02:05:13.533Z,5.35
2023-01-12T02:07:42.118Z,5.37
2023-01-12T02:10:11.003Z,5.37
2023-01-12T02:12:56.652Z,5.38
2023-01-12T02:15:45.639Z,5.35
2023-01-12T02:18:22.629Z,5.37
2023-01-12T02:21:05.593Z,5.36
2023-01-12T02:24:10.610Z,5.39
2023-01-12T02:27:30.009Z,5.40
2023-01-12T02:30:36.805Z,5.40
2023-01-12T02:33:19.779Z,5.41
2023-01-12T02:35:56.422Z,5.41
2023-01-12T02:38:32.234Z,5.38
2023-01-12T02:41:10.557Z,5.39
2023-01-12T02:43:40.148Z,5.40
2023-01-12T02:46:14.360Z,5.38
2023-01-12T02:48:48.211Z,5.38
2023-01-12T02:51:23.524Z,5.38
2023-01-12T02:53:53.716Z,5.36
2023-01-12T02:56:51.625Z,5.32
2023-01-12T02:59:23.958Z,5.34
2023-01-12T03:01:54.643Z,5.33
2023-01-12T03:04:24.596Z,5.35
2023-01-12T03:07:23.995Z,5.36
2023-01-12T03:09:57.420Z,5.38
2023-01-12T03:12:30.096Z,5.43
2023-01-12T03:15:00.913Z,5.42
2023-01-12T03:17:33.923Z,5.45
2023-01-12T03:20:06.978Z,5.47
2023-01-12T03:22:38.369Z,5.45
2023-01-12T03:25:11.193Z,5.48
2023-01-12T03:27:41.593Z,5.48
2023-01-12T03:30:14.080Z,5.48
2023-01-12T03:32:42.421Z,5.49
2023-01-12T03:35:12.588Z,5.50
2023-01-12T03:37:45.826Z,5.53
2023-01-12T03:40:19.859Z,5.54
2023-01-12T03:42:52.556Z,5.55
2023-01-12T03:45:28.025Z,5.55
2023-01-12T03:48:01.419Z,5.59
2023-01-12T03:50:40.009Z,5.60
2023-01-12T03:53:09.555Z,5.58
2023-01-12T03:55:39.804Z,5.60
2023-01-12T03:58:08.042Z,5.59
2023-01-12T04:00:36.231Z,5.62
2023-01-12T04:03:05.842Z,5.62
2023-01-12T04:05:35.210Z,5.63
2023-01-12T04:08:03.008Z,5.64
2023-01-12T04:10:30.876Z,5.65
2023-01-12T04:12:57.709Z,5.67
2023-01-12T04:15:25.627Z,5.67
2023-01-12T04:17:53.438Z,5.67
2023-01-12T04:20:21.714Z,5.65
2023-01-12T04:22:49.897Z,5.66
2023-01-12T04:25:19.617Z,5.66
2023-01-12T04:27:50.681Z,5.66
2023-01-12T04:30:22.817Z,5.68
2023-01-12T04:32:50.754Z,5.65
2023-01-12T04:35:18.983Z,5.62
2023-01-12T04:37:47.134Z,5.62
2023-01-12T04:40:17.735Z,5.61
2023-01-12T04:43:01.897Z,5.64
2023-01-12T04:45:30.290Z,5.62
2023-01-12T04:48:02.690Z,5.67
2023-01-12T04:50:30.871Z,5.66
2023-01-12T04:52:58.938Z,5.65
2023-01-12T04:55:28.139Z,5.63
2023-01-12T04:57:57.099Z,5.64
2023-01-12T05:00:25.096Z,5.66
2023-01-12T05:02:58.124Z,5.65
2023-01-12T05:05:26.290Z,5.61
2023-01-12T05:08:11.816Z,5.65
2023-01-12T05:10:41.106Z,5.65
2023-01-12T05:13:08.958Z,5.67
2023-01-12T05:15:36.804Z,5.68
2023-01-12T05:18:05.466Z,5.72
2023-01-12T05:20:33.321Z,5.71
2023-01-12T05:23:01.140Z,5.72
2023-01-12T05:25:29.389Z,5.73
2023-01-12T05:27:58.706Z,5.76
2023-01-12T05:30:27.078Z,5.76
2023-01-12T05:32:55.321Z,5.75
2023-01-12T05:35:23.377Z,5.75
2023-01-12T05:37:51.229Z,5.78
2023-01-12T05:40:19.286Z,5.78
2023-01-12T05:43:04.467Z,5.79
2023-01-12T05:45:34.896Z,5.77
2023-01-12T05:48:02.719Z,5.77
2023-01-12T05:50:30.748Z,5.75
2023-01-12T05:53:11.215Z,5.74
2023-01-12T05:55:39.477Z,5.76
2023-01-12T05:58:07.477Z,5.73
2023-01-12T06:00:36.748Z,5.75
2023-01-12T06:03:04.847Z,5.74
2023-01-12T06:05:32.709Z,5.72
2023-01-12T06:08:02.697Z,5.69
2023-01-12T06:10:30.576Z,5.67
2023-01-12T06:13:21.042Z,5.68
2023-01-12T06:15:50.377Z,5.68
2023-01-12T06:18:18.834Z,5.66
2023-01-12T06:20:46.705Z,5.67
2023-01-12T06:23:14.525Z,5.66
2023-01-12T06:25:42.323Z,5.67
2023-01-12T06:28:10.111Z,5.65
2023-01-12T06:30:37.953Z,5.66
2023-01-12T06:33:07.195Z,5.67
2023-01-12T06:35:35.098Z,5.65
2023-01-12T06:38:02.964Z,5.64
2023-01-12T06:40:30.804Z,5.61
2023-01-12T06:42:58.709Z,5.64
2023-01-12T06:45:26.594Z,5.66
2023-01-12T06:47:55.777Z,5.67
2023-01-12T06:50:24.988Z,5.68
2023-01-12T06:52:52.830Z,5.69
2023-01-12T06:55:21.043Z,5.72
2023-01-12T06:57:49.187Z,5.74
2023-01-12T07:00:17.320Z,5.75
2023-01-12T07:02:45.223Z,5.76
2023-01-12T07:05:13.103Z,5.80
2023-01-12T07:07:43.452Z,5.83
2023-01-12T07:10:12.996Z,5.82
2023-01-12T07:12:41.145Z,5.84
2023-01-12T07:15:10.004Z,5.84
2023-01-12T07:17:37.835Z,5.87
2023-01-12T07:20:06.604Z,5.87
2023-01-12T07:22:35.781Z,5.86
2023-01-12T07:25:05.316Z,5.89
2023-01-12T07:27:33.120Z,5.90
2023-01-12T07:30:00.927Z,5.91
2023-01-12T07:32:29.765Z,5.90
2023-01-12T07:34:57.606Z,5.93
2023-01-12T07:37:25.398Z,5.95
2023-01-12T07:39:53.261Z,5.97
2023-01-12T07:42:25.064Z,5.98
2023-01-12T07:44:53.544Z,5.99
2023-01-12T07:47:21.777Z,6.00
2023-01-12T07:49:49.626Z,6.00
2023-01-12T07:52:17.477Z,6.03
2023-01-12T07:54:45.380Z,6.03
2023-01-12T07:57:13.274Z,6.04
2023-01-12T07:59:42.394Z,6.04
2023-01-12T08:02:16.403Z,6.06
2023-01-12T08:04:44.773Z,6.06
2023-01-12T08:07:13.100Z,6.07
2023-01-12T08:09:40.989Z,6.10
2023-01-12T08:12:09.028Z,6.10
2023-01-12T08:14:38.875Z,6.11
2023-01-12T08:17:11.921Z,6.12
2023-01-12T08:19:44.007Z,6.12
2023-01-12T08:22:18.522Z,6.14
2023-01-12T08:24:52.528Z,6.17
2023-01-12T08:27:24.159Z,6.16
2023-01-12T08:29:55.681Z,6.16
2023-01-12T08:32:27.470Z,6.20
2023-01-12T08:35:01.660Z,6.20
2023-01-12T08:37:31.124Z,6.20
2023-01-12T08:39:59.156Z,6.21
2023-01-12T08:42:28.755Z,6.23
2023-01-12T08:44:57.524Z,6.24
2023-01-12T08:47:30.233Z,6.25
2023-01-12T08:50:00.343Z,6.26
2023-01-12T08:52:29.452Z,6.27
2023-01-12T08:54:57.615Z,6.27
2023-01-12T08:57:25.459Z,6.30
2023-01-12T08:59:53.329Z,6.33
2023-01-12T09:02:21.482Z,6.31
2023-01-12T09:04:50.799Z,6.32
2023-01-12T09:07:19.968Z,6.38
2023-01-12T09:09:47.810Z,6.39
2023-01-12T09:12:15.650Z,6.41
2023-01-12T09:14:43.619Z,6.44
2023-01-12T09:17:11.555Z,6.46
2023-01-12T09:19:39.727Z,6.50
2023-01-12T09:22:08.969Z,6.51
2023-01-12T09:24:36.821Z,6.53
2023-01-12T09:27:04.799Z,6.55
2023-01-12T09:29:32.615Z,6.55
2023-01-12T09:32:00.578Z,6.57
2023-01-12T09:34:28.594Z,6.58
2023-01-12T09:36:57.132Z,6.59
2023-01-12T09:39:28.860Z,6.59
2023-01-12T09:42:16.439Z,6.62
2023-01-12T09:45:03.642Z,6.63
2023-01-12T09:47:36.408Z,6.65
2023-01-12T09:50:10.672Z,6.66
2023-01-12T09:52:42.565Z,6.67
2023-01-12T09:55:16.264Z,6.69
2023-01-12T09:58:02.340Z,6.71
2023-01-12T10:00:30.235Z,6.74
2023-01-12T10:03:13.285Z,6.78
2023-01-12T10:05:47.245Z,6.82
2023-01-12T10:08:29.687Z,6.85
2023-01-12T10:11:09.445Z,6.88
2023-01-12T10:14:10.686Z,6.90
2023-01-12T10:16:51.725Z,6.92
2023-01-12T10:19:26.253Z,6.95
2023-01-12T10:21:55.379Z,6.97
2023-01-12T10:24:24.614Z,7.00
2023-01-12T10:27:02.839Z,7.02
2023-01-12T10:29:33.977Z,7.04
2023-01-12T10:32:01.877Z,7.06
2023-01-12T10:34:49.215Z,7.10
2023-01-12T10:37:17.226Z,7.12
2023-01-12T10:39:45.176Z,7.13
2023-01-12T10:42:38.105Z,7.14
2023-01-12T10:45:14.390Z,7.15
2023-01-12T10:47:43.192Z,7.15
2023-01-12T10:50:22.869Z,7.16
2023-01-12T10:52:56.985Z,7.17
2023-01-12T10:55:30.007Z,7.19
2023-01-12T10:57:59.801Z,7.21
2023-01-12T11:00:29.729Z,7.22
2023-01-12T11:02:58.278Z,7.23
2023-01-12T11:05:36.644Z,7.24
2023-01-12T11:08:05.425Z,7.25
2023-01-12T11:10:36.550Z,7.25
2023-01-12T11:13:08.930Z,7.28
2023-01-12T11:15:39.991Z,7.27
2023-01-12T11:18:29.169Z,7.28
2023-01-12T11:21:02.192Z,7.27
2023-01-12T11:23:37.699Z,7.28
2023-01-12T11:26:14.611Z,7.27
2023-01-12T11:28:48.678Z,7.26
2023-01-12T11:31:23.476Z,7.26
2023-01-12T11:33:56.339Z,7.27
2023-01-12T11:36:28.874Z,7.27
2023-01-12T11:39:02.667Z,7.26
2023-01-12T11:41:36.623Z,7.26
2023-01-12T11:44:13.877Z,7.25
2023-01-12T11:46:47.219Z,7.26
2023-01-12T11:49:20.677Z,7.26
2023-01-12T11:51:50.609Z,7.25
2023-01-12T11:54:20.363Z,7.26
2023-01-12T11:57:29.785Z,7.27
2023-01-12T12:00:13.356Z,7.27
2023-01-12T12:02:43.170Z,7.28
2023-01-12T12:05:24.593Z,7.28
2023-01-12T12:08:06.402Z,7.29
2023-01-12T12:10:43.799Z,7.29
2023-01-12T12:13:30.502Z,7.29
2023-01-12T12:16:13.953Z,7.30
2023-01-12T12:18:54.517Z,7.31
2023-01-12T12:21:39.489Z,7.33
2023-01-12T12:24:20.631Z,7.34
2023-01-12T12:26:59.048Z,7.36
2023-01-12T12:29:44.409Z,7.36
2023-01-12T12:32:29.455Z,7.37
2023-01-12T12:35:15.649Z,7.41
2023-01-12T12:37:52.704Z,7.40
2023-01-12T12:40:56.218Z,7.45
2023-01-12T12:43:49.591Z,7.47
2023-01-12T12:46:25.509Z,7.50
2023-01-12T12:49:01.128Z,7.53
2023-01-12T12:51:32.003Z,7.54
2023-01-12T12:54:02.904Z,7.56
2023-01-12T12:56:34.280Z,7.55
2023-01-12T12:59:02.936Z,7.57
2023-01-12T13:01:43.612Z,7.58
2023-01-12T13:04:57.654Z,7.60
2023-01-12T13:07:27.042Z,7.61
2023-01-12T13:10:05.535Z,7.60
2023-01-12T13:12:35.544Z,7.63
2023-01-12T13:15:36.942Z,7.68
2023-01-12T13:18:07.052Z,7.65
2023-01-12T13:20:56.445Z,7.68
2023-01-12T13:23:44.741Z,7.66
2023-01-12T13:26:38.582Z,7.66
2023-01-12T13:29:41.225Z,7.63
2023-01-12T13:32:45.909Z,7.65
2023-01-12T13:35:58.683Z,7.65
2023-01-12T13:38:43.842Z,7.61
2023-01-12T13:41:38.916Z,7.60
2023-01-12T13:44:08.254Z,7.60
2023-01-12T13:46:42.246Z,7.60
2023-01-12T13:49:26.861Z,7.60
2023-01-12T13:52:02.593Z,7.58
2023-01-12T13:54:33.487Z,7.58
2023-01-12T13:57:03.402Z,7.59
2023-01-12T13:59:32.850Z,7.58
2023-01-12T14:02:00.899Z,7.58
2023-01-12T14:05:01.025Z,7.59
2023-01-12T14:07:44.342Z,7.58
2023-01-12T14:10:28.809Z,7.57
2023-01-12T14:13:14.114Z,7.59
2023-01-12T14:16:01.651Z,7.58
2023-01-12T14:18:41.313Z,7.60
2023-01-12T14:21:22.043Z,7.59
2023-01-12T14:23:49.868Z,7.59
2023-01-12T14:26:23.860Z,7.60
2023-01-12T14:28:53.244Z,7.60
2023-01-12T14:31:27.188Z,7.59
2023-01-12T14:33:57.167Z,7.60
2023-01-12T14:36:28.970Z,7.59
2023-01-12T14:38:59.264Z,7.60
2023-01-12T14:41:48.126Z,7.59
2023-01-12T14:44:38.007Z,7.61
2023-01-12T14:47:06.088Z,7.62
2023-01-12T14:49:35.842Z,7.61
2023-01-12T14:52:22.797Z,7.60
2023-01-12T14:54:52.204Z,7.61
2023-01-12T14:57:25.036Z,7.60
2023-01-12T14:59:53.652Z,7.62
2023-01-12T15:02:33.298Z,7.61
2023-01-12T15:05:04.111Z,7.60
2023-01-12T15:07:36.120Z,7.59
2023-01-12T15:10:21.073Z,7.60
2023-01-12T15:12:54.362Z,7.59
2023-01-12T15:15:24.533Z,7.59
2023-01-12T15:18:12.551Z,7.57
2023-01-12T15:21:00.866Z,7.56
2023-01-12T15:23:48.270Z,7.54
2023-01-12T15:26:16.148Z,7.53
2023-01-12T15:28:46.052Z,7.51
2023-01-12T15:31:20.292Z,7.51
2023-01-12T15:33:48.296Z,7.49
2023-01-12T15:36:16.749Z,7.49
2023-01-12T15:38:44.576Z,7.49
2023-01-12T15:41:18.368Z,7.46
2023-01-12T15:43:47.526Z,7.44
2023-01-12T15:46:20.327Z,7.44
2023-01-12T15:48:48.113Z,7.41
2023-01-12T15:51:16.930Z,7.42
2023-01-12T15:53:44.879Z,7.41
2023-01-12T15:56:15.367Z,7.39
2023-01-12T15:58:43.368Z,7.39
2023-01-12T16:01:17.357Z,7.38
2023-01-12T16:04:09.583Z,7.34
2023-01-12T16:06:34.972Z,7.35
2023-01-12T16:09:02.838Z,7.33
2023-01-12T16:11:30.760Z,7.32
2023-01-12T16:13:58.605Z,7.28
2023-01-12T16:16:29.114Z,7.30
2023-01-12T16:18:59.780Z,7.26
2023-01-12T16:21:29.432Z,7.26
2023-01-12T16:23:57.985Z,7.24
2023-01-12T16:26:26.758Z,7.24
2023-01-12T16:28:55.069Z,7.22
2023-01-12T16:31:23.024Z,7.23
2023-01-12T16:33:52.336Z,7.22
2023-01-12T16:36:20.138Z,7.20
2023-01-12T16:38:47.972Z,7.20
2023-01-12T16:41:19.137Z,7.18
2023-01-12T16:43:47.143Z,7.17
2023-01-12T16:46:15.842Z,7.18
2023-01-12T16:48:43.847Z,7.18
2023-01-12T16:51:14.401Z,7.19
2023-01-12T16:53:42.986Z,7.21
2023-01-12T16:56:13.177Z,7.20
2023-01-12T16:58:41.926Z,7.20
2023-01-12T17:01:12.270Z,7.19
2023-01-12T17:03:41.586Z,7.20
2023-01-12T17:06:11.315Z,7.20
2023-01-12T17:08:40.813Z,7.22
2023-01-12T17:11:09.917Z,7.23
2023-01-12T17:13:38.461Z,7.21
2023-01-12T17:16:08.590Z,7.22
2023-01-12T17:18:37.446Z,7.22
2023-01-12T17:21:09.055Z,7.23
2023-01-12T17:23:37.448Z,7.24
2023-01-12T17:26:08.627Z,7.24
2023-01-12T17:28:36.603Z,7.24
2023-01-12T17:31:08.449Z,7.26
2023-01-12T17:33:36.597Z,7.25
2023-01-12T17:36:05.430Z,7.28
2023-01-12T17:38:34.785Z,7.28
2023-01-12T17:41:09.537Z,7.29
2023-01-12T17:43:37.254Z,7.29
2023-01-12T17:46:09.833Z,7.28
2023-01-12T17:48:37.754Z,7.31
2023-01-12T17:51:11.656Z,7.29
2023-01-12T17:53:39.670Z,7.29
2023-01-12T17:56:09.876Z,7.31
2023-01-12T17:58:38.331Z,7.32
2023-01-12T18:01:11.816Z,7.32
2023-01-12T18:03:39.794Z,7.33
2023-01-12T18:06:12.080Z,7.34
2023-01-12T18:08:47.133Z,7.34
2023-01-12T18:11:17.029Z,7.34
2023-01-12T18:13:44.996Z,7.35
2023-01-12T18:16:14.985Z,7.35
2023-01-12T18:18:44.085Z,7.36
2023-01-12T18:21:14.225Z,7.38
2023-01-12T18:23:43.494Z,7.40
2023-01-12T18:26:13.899Z,7.40
2023-01-12T18:28:43.667Z,7.40
2023-01-12T18:31:13.577Z,7.41
2023-01-12T18:33:41.522Z,7.42
2023-01-12T18:36:10.545Z,7.45
2023-01-12T18:38:39.797Z,7.46
2023-01-12T18:41:25.204Z,7.46
2023-01-12T18:43:54.873Z,7.46
2023-01-12T18:46:42.875Z,7.47
2023-01-12T18:49:10.008Z,7.48
2023-01-12T18:51:55.280Z,7.50
2023-01-12T18:54:23.095Z,7.50
2023-01-12T18:56:51.707Z,7.50
2023-01-12T18:59:21.584Z,7.52
2023-01-12T19:01:50.061Z,7.53
2023-01-12T19:04:28.525Z,7.53
2023-01-12T19:07:00.704Z,7.53
2023-01-12T19:09:38.436Z,7.54
2023-01-12T19:12:07.344Z,7.54
2023-01-12T19:14:54.170Z,7.55
2023-01-12T19:17:30.909Z,7.55
2023-01-12T19:20:00.216Z,7.55
2023-01-12T19:22:46.392Z,7.58
2023-01-12T19:25:33.171Z,7.59
2023-01-12T19:28:18.658Z,7.58
2023-01-12T19:30:48.230Z,7.57
2023-01-12T19:33:17.232Z,7.56
2023-01-12T19:35:46.390Z,7.56
2023-01-12T19:38:15.685Z,7.56
2023-01-12T19:40:47.565Z,7.56
2023-01-12T19:43:19.868Z,7.55
2023-01-12T19:45:51.888Z,7.55
2023-01-12T19:48:21.674Z,7.57
2023-01-12T19:50:50.012Z,7.56
2023-01-12T19:53:20.425Z,7.55
2023-01-12T19:55:49.952Z,7.55
2023-01-12T19:58:17.841Z,7.55
2023-01-12T20:00:46.392Z,7.57
2023-01-12T20:03:17.511Z,7.56
2023-01-12T20:05:47.532Z,7.57
2023-01-12T20:08:16.370Z,7.57
2023-01-12T20:10:44.890Z,7.55
2023-01-12T20:13:14.417Z,7.55
2023-01-12T20:15:43.374Z,7.56
2023-01-12T20:18:13.713Z,7.57
2023-01-12T20:20:43.018Z,7.56
2023-01-12T20:23:11.833Z,7.56
2023-01-12T20:25:40.016Z,7.53
2023-01-12T20:28:08.449Z,7.53
2023-01-12T20:30:38.147Z,7.52
2023-01-12T20:33:08.513Z,7.51
2023-01-12T20:35:38.348Z,7.50
2023-01-12T20:38:13.218Z,7.53
2023-01-12T20:40:41.276Z,7.52
2023-01-12T20:43:09.343Z,7.53
2023-01-12T20:45:37.814Z,7.50
2023-01-12T20:48:05.680Z,7.49
2023-01-12T20:50:33.559Z,7.49
2023-01-12T20:53:01.588Z,7.48
2023-01-12T20:55:30.814Z,7.46
2023-01-12T20:57:58.640Z,7.45
2023-01-12T21:00:27.318Z,7.45
2023-01-12T21:02:55.189Z,7.43
2023-01-12T21:05:23.015Z,7.42
2023-01-12T21:07:57.002Z,7.41
2023-01-12T21:10:32.838Z,7.40
2023-01-12T21:13:00.685Z,7.41
2023-01-12T21:15:28.571Z,7.39
2023-01-12T21:17:56.422Z,7.38
2023-01-12T21:20:24.414Z,7.40
2023-01-12T21:22:52.963Z,7.39
2023-01-12T21:25:21.070Z,7.39
2023-01-12T21:27:50.345Z,7.38
2023-01-12T21:30:18.621Z,7.38
2023-01-12T21:32:46.628Z,7.38
2023-01-12T21:35:15.078Z,7.38
2023-01-12T21:42:07.012Z,7.40
2023-01-12T21:44:36.468Z,7.41
2023-01-12T21:47:04.215Z,7.40
2023-01-12T21:49:31.979Z,7.39
2023-01-12T21:51:59.761Z,7.39
2023-01-12T21:54:27.628Z,7.40
2023-01-12T21:56:55.436Z,7.39
2023-01-12T21:59:23.289Z,7.40
2023-01-12T22:01:52.576Z,7.40
2023-01-12T22:04:20.451Z,7.40
2023-01-12T22:06:50.829Z,7.39
2023-01-12T22:09:18.984Z,7.42
2023-01-12T22:11:46.698Z,7.40
2023-01-12T22:14:14.634Z,7.41
2023-01-12T22:16:42.401Z,7.41
2023-01-12T22:19:11.523Z,7.42
2023-01-12T22:21:39.365Z,7.42
2023-01-12T22:24:08.168Z,7.43
2023-01-12T22:26:36.470Z,7.44
2023-01-12T22:29:04.292Z,7.43
2023-01-12T22:31:32.119Z,7.44
2023-01-12T22:34:02.776Z,7.45
2023-01-12T22:36:34.845Z,7.45
2023-01-12T22:39:03.055Z,7.45
2023-01-12T22:41:30.883Z,7.45
2023-01-12T22:43:58.662Z,7.45
2023-01-12T22:46:28.677Z,7.48
2023-01-12T22:48:59.244Z,7.49
2023-01-12T22:51:29.353Z,7.48
2023-01-12T22:53:58.687Z,7.51
2023-01-12T22:56:26.560Z,7.50
2023-01-12T22:58:55.900Z,7.51
2023-01-12T23:01:25.896Z,7.52
2023-01-12T23:03:54.263Z,7.56
2023-01-12T23:06:23.232Z,7.60
2023-01-12T23:08:51.629Z,7.60
2023-01-12T23:11:22.814Z,7.59
2023-01-12T23:13:51.326Z,7.58
2023-01-12T23:16:20.168Z,7.58
2023-01-12T23:18:49.782Z,7.58
2023-01-12T23:21:19.159Z,7.59
2023-01-12T23:23:48.371Z,7.59
2023-01-12T23:26:18.400Z,7.58
2023-01-12T23:28:49.932Z,7.58
2023-01-12T23:31:21.200Z,7.57
2023-01-12T23:33:49.600Z,7.59
2023-01-12T23:36:19.279Z,7.58
2023-01-12T23:38:47.489Z,7.58
2023-01-12T23:41:18.276Z,7.59
2023-01-12T23:43:48.898Z,7.60
2023-01-12T23:46:20.117Z,7.58
2023-01-12T23:48:47.875Z,7.59
2023-01-12T23:51:16.467Z,7.59
2023-01-12T23:53:45.151Z,7.59
2023-01-12T23:56:14.691Z,7.58
2023-01-12T23:58:43.582Z,7.58
